createdAt,value
2023-10-05T00:01:31.607Z,0
2023-10-05T00:04:00.575Z,0
2023-10-05T00:07:01.644Z,0
2023-10-05T00:13:00.124Z,0
2023-10-05T00:18:59.840Z,0
2023-10-05T01:44:13.511Z,0
2023-10-05T01:45:45.316Z,0
2023-10-05T01:47:17.054Z,0
2023-10-05T01:51:48.953Z,0
2023-10-05T01:53:20.720Z,0
2023-10-05T01:54:52.094Z,0
2023-10-05T01:56:23.610Z,0
2023-10-05T01:57:55.347Z,0
2023-10-05T01:59:27.094Z,0
2023-10-05T02:00:58.572Z,0
2023-10-05T02:03:00.249Z,0
2023-10-05T02:09:01.590Z,0
2023-10-05T02:12:00.791Z,0
2023-10-05T02:18:01.768Z,0
2023-10-05T02:24:01.407Z,0
2023-10-05T02:27:01.603Z,0
2023-10-05T02:33:01.361Z,0
2023-10-05T02:37:32.994Z,0
2023-10-05T02:39:04.520Z,0
2023-10-05T02:42:01.850Z,0
2023-10-05T02:48:03.564Z,0
2023-10-05T02:54:02.183Z,0
2023-10-05T02:57:02.659Z,0
2023-10-05T03:02:58.891Z,0
2023-10-05T03:09:00.174Z,0
2023-10-05T03:11:58.914Z,0
2023-10-05T03:17:59.772Z,0
2023-10-05T03:23:59.759Z,0
2023-10-05T03:26:59.869Z,0
2023-10-05T03:30:01.016Z,0
2023-10-05T03:33:02.804Z,0
2023-10-05T03:39:01.209Z,0
2023-10-05T03:42:00.577Z,0
2023-10-05T03:45:00.794Z,0
2023-10-05T03:48:02.235Z,0
2023-10-05T03:54:01.121Z,0
2023-10-05T03:57:01.618Z,0
2023-10-05T03:59:57.502Z,0
2023-10-05T04:02:57.913Z,0
2023-10-05T04:08:59.402Z,0
2023-10-05T04:11:57.665Z,0
2023-10-05T04:17:58.256Z,0
2023-10-05T04:23:58.672Z,0
2023-10-05T04:26:58.647Z,0
2023-10-05T04:31:30.465Z,0
2023-10-05T04:33:01.996Z,0
2023-10-05T04:38:59.013Z,0
2023-10-05T04:42:00.419Z,0
2023-10-05T04:47:58.968Z,0
2023-10-05T04:53:59.923Z,0
2023-10-05T04:57:01.037Z,0
2023-10-05T05:02:56.011Z,0
2023-10-05T05:08:55.709Z,0
2023-10-05T05:11:56.413Z,0
2023-10-05T05:17:58.325Z,0.3
2023-10-05T05:23:56.710Z,1
2023-10-05T05:28:30.678Z,1.7
2023-10-05T05:30:02.095Z,2.4
2023-10-05T05:32:57.805Z,2.7
2023-10-05T05:38:57.950Z,2.9
2023-10-05T05:41:58.028Z,3.7
2023-10-05T05:47:58.088Z,5.4
2023-10-05T05:53:58.458Z,10.2
2023-10-05T05:56:57.600Z,11.9
2023-10-05T06:02:54.925Z,20
2023-10-05T06:08:53.677Z,42.3
2023-10-05T06:11:53.814Z,43.4
2023-10-05T06:17:54.083Z,45.2
2023-10-05T06:23:56.362Z,56.1
2023-10-05T06:26:55.806Z,48.8
2023-10-05T06:32:56.303Z,59
2023-10-05T06:38:56.431Z,73.4
2023-10-05T06:41:56.717Z,56
2023-10-05T06:47:56.959Z,83.3
2023-10-05T06:50:56.665Z,137.4
2023-10-05T06:53:57.436Z,165.9
2023-10-05T06:56:56.487Z,145.6
2023-10-05T06:59:53.481Z,152.3
2023-10-05T07:02:57.936Z,173.7
2023-10-05T07:08:54.284Z,124
2023-10-05T07:14:56.828Z,65.5
2023-10-05T07:17:53.534Z,93.7
2023-10-05T07:23:55.770Z,114.8
2023-10-05T07:30:13.493Z,145.3
2023-10-05T07:33:04.945Z,83.4
2023-10-05T07:38:55.382Z,90.4
2023-10-05T07:44:57.134Z,96.2
2023-10-05T07:47:55.862Z,79.2
2023-10-05T07:53:56.096Z,157.9
2023-10-05T08:02:53.099Z,156.3
2023-10-05T08:05:53.936Z,128.6
2023-10-05T08:08:52.463Z,79.7
2023-10-05T08:11:52.480Z,88.8
2023-10-05T08:17:54.466Z,96.8
2023-10-05T08:23:53.926Z,94.4
2023-10-05T08:26:52.511Z,79.6
2023-10-05T08:32:53.259Z,143.9
2023-10-05T08:38:53.231Z,79.4
2023-10-05T08:41:53.483Z,117.4
2023-10-05T08:47:53.475Z,138.5
2023-10-05T08:53:53.980Z,104.8
2023-10-05T08:56:53.014Z,75.7
2023-10-05T09:02:50.990Z,91.7
2023-10-05T09:08:49.972Z,57.1
2023-10-05T09:11:51.035Z,54.8
2023-10-05T09:17:51.599Z,67.3
2023-10-05T09:23:51.769Z,64.1
2023-10-05T09:26:50.688Z,143.8
2023-10-05T09:32:51.095Z,189
2023-10-05T09:38:50.783Z,250
2023-10-05T09:41:51.051Z,285.1
2023-10-05T09:47:51.048Z,258.1
2023-10-05T09:53:51.217Z,177.1
2023-10-05T09:57:29.566Z,228.9
2023-10-05T10:02:50.851Z,307.4
2023-10-05T10:05:49.924Z,475.5
2023-10-05T10:08:49.774Z,538.3
2023-10-05T10:11:51.258Z,299.7
2023-10-05T10:17:50.868Z,312.3
2023-10-05T10:23:51.054Z,315.8
2023-10-05T10:26:51.551Z,271.2
2023-10-05T10:29:55.562Z,236.4
2023-10-05T10:32:52.780Z,172.3
2023-10-05T10:38:53.845Z,176.9
2023-10-05T10:41:52.679Z,170.2
2023-10-05T10:47:54.308Z,59
2023-10-05T10:53:53.897Z,53.4
2023-10-05T10:56:52.973Z,46
2023-10-05T11:02:50.252Z,81.2
2023-10-05T11:08:58.231Z,74.6
2023-10-05T11:11:57.509Z,95.2
2023-10-05T11:17:56.759Z,100
2023-10-05T11:23:57.738Z,99.3
2023-10-05T11:27:09.603Z,107.3
2023-10-05T11:35:35.115Z,153.3
2023-10-05T11:37:07.542Z,216
2023-10-05T11:38:55.420Z,202.9
2023-10-05T11:41:52.085Z,219.9
2023-10-05T11:47:53.253Z,149
2023-10-05T11:53:54.391Z,146.2
2023-10-05T11:56:53.226Z,130
2023-10-05T12:02:57.502Z,122.1
2023-10-05T12:08:51.006Z,223.4
2023-10-05T12:11:49.476Z,243.7
2023-10-05T12:14:49.688Z,260.1
2023-10-05T12:17:50.979Z,235.9
2023-10-05T12:23:49.692Z,200.2
2023-10-05T12:29:49.068Z,144.4
2023-10-05T12:32:50.215Z,108.3
2023-10-05T12:38:51.497Z,97.1
2023-10-05T12:44:51.908Z,131.5
2023-10-05T12:47:53.039Z,138.4
2023-10-05T12:53:51.905Z,161.6
2023-10-05T13:02:47.141Z,146.7
2023-10-05T13:06:06.168Z,181.6
2023-10-05T13:08:46.934Z,134.4
2023-10-05T13:11:48.642Z,147.9
2023-10-05T13:17:49.530Z,117.7
2023-10-05T13:23:48.780Z,81.9
2023-10-05T13:26:46.711Z,85.9
2023-10-05T13:32:48.168Z,83.9
2023-10-05T13:38:48.902Z,87.7
2023-10-05T13:41:50.732Z,107.4
2023-10-05T13:48:02.697Z,122.3
2023-10-05T13:53:50.425Z,67.2
2023-10-05T13:56:49.150Z,88.1
2023-10-05T14:02:48.373Z,129.4
2023-10-05T14:08:47.720Z,169.1
2023-10-05T14:11:48.966Z,164.9
2023-10-05T14:17:47.654Z,179.6
2023-10-05T14:23:47.288Z,154.9
2023-10-05T14:26:48.324Z,281.6
2023-10-05T14:32:49.071Z,284
2023-10-05T14:38:49.920Z,304.7
2023-10-05T14:41:51.022Z,280.8
2023-10-05T14:47:50.181Z,161.2
2023-10-05T14:53:49.795Z,134.4
2023-10-05T14:56:50.111Z,112
2023-10-05T15:08:49.539Z,62.3
2023-10-05T15:14:46.969Z,61.3
2023-10-05T15:17:47.747Z,60
2023-10-05T15:23:47.601Z,52.4
2023-10-05T15:29:48.492Z,44.7
2023-10-05T15:32:48.979Z,46.1
2023-10-05T15:38:50.639Z,66.5
2023-10-05T15:44:49.204Z,58.3
2023-10-05T15:47:50.639Z,85.1
2023-10-05T15:53:49.458Z,54.2
2023-10-05T15:59:48.628Z,37.4
2023-10-05T16:02:47.306Z,27.9
2023-10-05T16:08:52.352Z,14.2
2023-10-05T16:11:48.275Z,17.7
2023-10-05T16:14:48.735Z,17.1
2023-10-05T16:17:48.172Z,15.3
2023-10-05T16:23:49.108Z,8.7
2023-10-05T16:26:49.265Z,6.6
2023-10-05T16:29:50.007Z,5.2
2023-10-05T16:32:50.305Z,4.8
2023-10-05T16:38:50.202Z,3.4
2023-10-05T16:41:50.286Z,2.9
2023-10-05T16:44:51.626Z,2.7
2023-10-05T16:47:50.621Z,2.4
2023-10-05T16:53:50.772Z,1.6
2023-10-05T16:56:54.575Z,1.3
2023-10-05T16:59:46.987Z,1
2023-10-05T17:02:47.570Z,1
2023-10-05T17:08:46.935Z,0.2
2023-10-05T17:11:47.293Z,0
2023-10-05T17:14:46.487Z,0
2023-10-05T17:17:47.626Z,0
2023-10-05T17:23:48.056Z,0
2023-10-05T17:26:48.913Z,0
2023-10-05T17:32:51.091Z,0
2023-10-05T17:38:49.440Z,0
2023-10-05T17:41:50.711Z,0
2023-10-05T17:47:49.337Z,0
2023-10-05T17:53:54.134Z,0
2023-10-05T17:56:50.718Z,0
2023-10-05T18:02:47.616Z,0
2023-10-05T18:08:48.582Z,0
2023-10-05T18:11:47.565Z,0
2023-10-05T18:17:49.013Z,0
2023-10-05T18:23:50.016Z,0
2023-10-05T18:26:50.421Z,0
2023-10-05T18:32:50.468Z,0
2023-10-05T18:38:51.500Z,0
2023-10-05T18:41:50.089Z,0
2023-10-05T18:47:50.213Z,0
2023-10-05T18:53:50.459Z,0
2023-10-05T18:56:51.126Z,0
2023-10-05T19:02:48.323Z,0
2023-10-05T19:08:48.133Z,0
2023-10-05T19:11:48.618Z,0
2023-10-05T19:17:49.229Z,0
2023-10-05T19:23:49.828Z,0
2023-10-05T19:26:50.888Z,0
2023-10-05T19:32:50.240Z,0
2023-10-05T19:38:49.708Z,0
2023-10-05T19:41:49.747Z,0
2023-10-05T19:47:50.477Z,0
2023-10-05T19:53:50.494Z,0
2023-10-05T19:57:04.759Z,0
2023-10-05T20:08:54.040Z,0
2023-10-05T20:14:49.290Z,0
2023-10-05T20:17:50.098Z,0
2023-10-05T20:23:50.637Z,0
2023-10-05T20:29:52.292Z,0
2023-10-05T20:32:51.095Z,0
2023-10-05T20:38:52.215Z,0
2023-10-05T20:44:51.018Z,0
2023-10-05T20:47:51.679Z,0
2023-10-05T20:53:52.280Z,0
2023-10-05T20:59:46.219Z,0
2023-10-05T21:02:47.109Z,0
2023-10-05T21:08:47.280Z,0
2023-10-05T21:11:47.273Z,0
2023-10-05T21:14:47.810Z,0
2023-10-05T21:17:48.569Z,0
2023-10-05T21:23:49.309Z,0
2023-10-05T21:26:50.470Z,0
2023-10-05T21:29:49.324Z,0
2023-10-05T21:32:49.414Z,0
2023-10-05T21:38:49.321Z,0
2023-10-05T21:41:49.491Z,0
2023-10-05T21:47:49.187Z,0
2023-10-05T21:53:50.784Z,0
2023-10-05T21:56:52.302Z,0
2023-10-05T22:02:49.165Z,0
2023-10-05T22:08:48.073Z,0
2023-10-05T22:11:49.240Z,0
2023-10-05T22:17:48.426Z,0
2023-10-05T22:23:47.839Z,0
2023-10-05T22:26:48.774Z,0
2023-10-05T22:32:49.389Z,0
2023-10-05T22:35:50.170Z,0
2023-10-05T22:39:00.439Z,0
2023-10-05T22:41:51.643Z,0
2023-10-05T22:47:51.005Z,0
2023-10-05T22:53:50.976Z,0
2023-10-05T22:56:59.788Z,0
2023-10-05T22:59:45.460Z,0
2023-10-05T23:02:45.611Z,0
2023-10-05T23:08:46.522Z,0
2023-10-05T23:11:45.195Z,0
2023-10-05T23:17:45.813Z,0
2023-10-05T23:23:45.104Z,0
2023-10-05T23:26:45.408Z,0
2023-10-05T23:32:46.934Z,0
2023-10-05T23:38:48.325Z,0
2023-10-05T23:41:47.269Z,0
2023-10-05T23:48:07.872Z,0
2023-10-05T23:53:47.329Z,0
2023-10-05T23:56:47.814Z,0
